Kankakee, IL (60901)

3:43 AM CDT on July 31, 2016 (GMT -0500)
Quail hallow | | Change Station

Elev 669 ft 41.16 °N, 87.84 °W | Updated 8 minutes ago

Overcast
Overcast
65.7 °F
Feels Like 65.7 °F
N
0.0
Wind Variable Wind from East

Today
High -- | Low -- °F
--% Chance of Precip.
Yesterday
High -- | Low -- °F
Precip. -- in
Pressure 30.00 in
Visibility 4.0 miles
Clouds Overcast 2200 ft
Dew Point 63 °F
Humidity 90%
Rainfall 0.00 in
Snow Depth Not available.
5:46 AM 8:08 PM
Waning Crescent, 8% visible
METAR KIKK 310835Z AUTO 32003KT 4SM BR OVC022 18/18 A3000 RMK AO2 T01830175
Pressure 30.00 in
Visibility 4.0 miles
Clouds Overcast 2200 ft
Dew Point 63 °F
Humidity 90%
Rainfall 0.00 in
Snow Depth Not available.
5:46 AM 8:08 PM
Waning Crescent, 8% visible
METAR KIKK 310835Z AUTO 32003KT 4SM BR OVC022 18/18 A3000 RMK AO2 T01830175

10-Day Weather Forecast

Almanac

Astronomy

Jul. 31, 2016 Rise Set
Actual Time
Civil Twilight
Nautical Twilight
Astronomical Twilight
Moon
Length of Visible Light
Length of Day
Tomorrow will be .
, % of the Moon is Illuminated

Today's Extremes

State Highs State Lows

Community

WunderPhotos

Upload Photos

1,928,768 photos uploaded!

WunderBlog® & News

Nearby

Air Quality

  Air Quality AQ Index Pollutant
Not available.

Snow Depth

Station Depth Elevation

Earthquake Activity

City Distance Mag. Time & Date
Minimum magnitude displayed is 2.5.

Coastal Water Temperatures

Place Temperature

Stations

Nearby Weather Stations

Station Location Temp. Windchill Dew Point Humidity Wind Precip. Elev Updated Type
                   

Watches & Warnings

There are currently no watches in effect.